sensor_id;sensor_type;location;lat;lon;timestamp;P1;durP1;ratioP1;P2;durP2;ratioP2
32501;SDS011;18952;52.516;13.460;2022-10-31T00:01:21;55.33;;;37.47;;
32501;SDS011;18952;52.516;13.460;2022-10-31T00:03:53;56.28;;;38.08;;
32501;SDS011;18952;52.516;13.460;2022-10-31T00:06:20;55.08;;;38.75;;
32501;SDS011;18952;52.516;13.460;2022-10-31T00:08:51;57.67;;;39.13;;
32501;SDS011;18952;52.516;13.460;2022-10-31T00:11:23;53.38;;;36.47;;
32501;SDS011;18952;52.516;13.460;2022-10-31T00:13:49;62.30;;;38.90;;
32501;SDS011;18952;52.516;13.460;2022-10-31T00:16:20;63.88;;;37.55;;
32501;SDS011;18952;52.516;13.460;2022-10-31T00:18:48;59.30;;;38.17;;
32501;SDS011;18952;52.516;13.460;2022-10-31T00:21:16;52.72;;;37.33;;
32501;SDS011;18952;52.516;13.460;2022-10-31T00:23:43;61.38;;;42.03;;
32501;SDS011;18952;52.516;13.460;2022-10-31T00:26:10;59.05;;;38.08;;
32501;SDS011;18952;52.516;13.460;2022-10-31T00:28:36;51.30;;;37.40;;
32501;SDS011;18952;52.516;13.460;2022-10-31T00:31:04;50.30;;;36.63;;
32501;SDS011;18952;52.516;13.460;2022-10-31T00:33:32;51.85;;;36.05;;
32501;SDS011;18952;52.516;13.460;2022-10-31T00:36:00;52.15;;;36.20;;
32501;SDS011;18952;52.516;13.460;2022-10-31T00:38:27;53.97;;;37.90;;
32501;SDS011;18952;52.516;13.460;2022-10-31T00:40:54;54.40;;;36.78;;
32501;SDS011;18952;52.516;13.460;2022-10-31T00:43:21;54.70;;;36.55;;
32501;SDS011;18952;52.516;13.460;2022-10-31T00:45:47;55.85;;;37.40;;
32501;SDS011;18952;52.516;13.460;2022-10-31T00:48:14;48.20;;;36.28;;
32501;SDS011;18952;52.516;13.460;2022-10-31T00:50:41;53.28;;;37.50;;
32501;SDS011;18952;52.516;13.460;2022-10-31T00:53:08;55.17;;;38.55;;
32501;SDS011;18952;52.516;13.460;2022-10-31T00:55:34;50.80;;;37.65;;
32501;SDS011;18952;52.516;13.460;2022-10-31T00:58:01;57.25;;;37.15;;
32501;SDS011;18952;52.516;13.460;2022-10-31T01:00:29;56.30;;;39.00;;
32501;SDS011;18952;52.516;13.460;2022-10-31T01:02:55;56.35;;;38.55;;
32501;SDS011;18952;52.516;13.460;2022-10-31T01:05:23;51.85;;;37.20;;
32501;SDS011;18952;52.516;13.460;2022-10-31T01:07:49;52.17;;;37.28;;
32501;SDS011;18952;52.516;13.460;2022-10-31T01:10:16;58.05;;;38.05;;
32501;SDS011;18952;52.516;13.460;2022-10-31T01:12:49;54.78;;;40.83;;
32501;SDS011;18952;52.516;13.460;2022-10-31T01:15:17;56.15;;;41.60;;
32501;SDS011;18952;52.516;13.460;2022-10-31T01:17:47;56.53;;;38.80;;
32501;SDS011;18952;52.516;13.460;2022-10-31T01:20:14;55.30;;;37.92;;
32501;SDS011;18952;52.516;13.460;2022-10-31T01:22:41;54.85;;;38.45;;
32501;SDS011;18952;52.516;13.460;2022-10-31T01:25:09;52.58;;;36.35;;
32501;SDS011;18952;52.516;13.460;2022-10-31T01:27:36;45.05;;;32.10;;
32501;SDS011;18952;52.516;13.460;2022-10-31T01:30:05;44.88;;;32.20;;
32501;SDS011;18952;52.516;13.460;2022-10-31T01:32:32;43.42;;;30.00;;
32501;SDS011;18952;52.516;13.460;2022-10-31T01:34:58;48.92;;;30.27;;
32501;SDS011;18952;52.516;13.460;2022-10-31T01:37:25;46.83;;;30.00;;
32501;SDS011;18952;52.516;13.460;2022-10-31T01:39:54;50.22;;;29.92;;
32501;SDS011;18952;52.516;13.460;2022-10-31T01:42:22;45.97;;;30.98;;
32501;SDS011;18952;52.516;13.460;2022-10-31T01:44:56;47.60;;;32.03;;
32501;SDS011;18952;52.516;13.460;2022-10-31T01:47:47;49.30;;;30.88;;
32501;SDS011;18952;52.516;13.460;2022-10-31T01:50:15;46.95;;;31.38;;
32501;SDS011;18952;52.516;13.460;2022-10-31T01:52:52;48.90;;;32.38;;
32501;SDS011;18952;52.516;13.460;2022-10-31T01:57:55;48.33;;;32.47;;
32501;SDS011;18952;52.516;13.460;2022-10-31T02:00:26;48.72;;;35.28;;
32501;SDS011;18952;52.516;13.460;2022-10-31T02:03:16;55.72;;;38.50;;
32501;SDS011;18952;52.516;13.460;2022-10-31T02:05:44;50.38;;;35.15;;
32501;SDS011;18952;52.516;13.460;2022-10-31T02:08:31;48.30;;;31.08;;
32501;SDS011;18952;52.516;13.460;2022-10-31T02:11:01;47.55;;;30.15;;
32501;SDS011;18952;52.516;13.460;2022-10-31T02:13:28;48.45;;;29.60;;
32501;SDS011;18952;52.516;13.460;2022-10-31T02:15:56;42.00;;;29.58;;
32501;SDS011;18952;52.516;13.460;2022-10-31T02:18:25;43.38;;;29.55;;
32501;SDS011;18952;52.516;13.460;2022-10-31T02:26:40;52.08;;;33.65;;
32501;SDS011;18952;52.516;13.460;2022-10-31T02:32:37;47.83;;;30.65;;
32501;SDS011;18952;52.516;13.460;2022-10-31T02:35:20;46.10;;;31.92;;
32501;SDS011;18952;52.516;13.460;2022-10-31T02:40:47;53.88;;;33.67;;
32501;SDS011;18952;52.516;13.460;2022-10-31T02:43:28;58.45;;;33.33;;
32501;SDS011;18952;52.516;13.460;2022-10-31T02:46:18;54.35;;;33.22;;
32501;SDS011;18952;52.516;13.460;2022-10-31T02:48:53;45.55;;;31.67;;
32501;SDS011;18952;52.516;13.460;2022-10-31T02:51:22;48.30;;;32.20;;
32501;SDS011;18952;52.516;13.460;2022-10-31T02:53:49;45.28;;;29.17;;
32501;SDS011;18952;52.516;13.460;2022-10-31T02:56:17;44.15;;;30.05;;
32501;SDS011;18952;52.516;13.460;2022-10-31T02:58:46;39.97;;;27.60;;
32501;SDS011;18952;52.516;13.460;2022-10-31T03:09:11;46.78;;;30.38;;
32501;SDS011;18952;52.516;13.460;2022-10-31T03:11:46;48.13;;;29.75;;
32501;SDS011;18952;52.516;13.460;2022-10-31T03:14:26;41.35;;;30.00;;
32501;SDS011;18952;52.516;13.460;2022-10-31T03:17:04;43.40;;;28.60;;
32501;SDS011;18952;52.516;13.460;2022-10-31T03:19:37;45.15;;;29.45;;
32501;SDS011;18952;52.516;13.460;2022-10-31T03:22:27;50.90;;;30.40;;
32501;SDS011;18952;52.516;13.460;2022-10-31T03:24:55;46.97;;;30.77;;
32501;SDS011;18952;52.516;13.460;2022-10-31T03:27:24;41.60;;;27.63;;
32501;SDS011;18952;52.516;13.460;2022-10-31T03:29:54;40.85;;;25.27;;
32501;SDS011;18952;52.516;13.460;2022-10-31T03:32:24;42.60;;;26.58;;
32501;SDS011;18952;52.516;13.460;2022-10-31T03:37:27;44.45;;;26.10;;
32501;SDS011;18952;52.516;13.460;2022-10-31T03:39:58;37.97;;;24.10;;
32501;SDS011;18952;52.516;13.460;2022-10-31T03:42:28;33.83;;;23.05;;
32501;SDS011;18952;52.516;13.460;2022-10-31T03:44:59;37.67;;;22.58;;
32501;SDS011;18952;52.516;13.460;2022-10-31T03:47:31;32.22;;;22.55;;
32501;SDS011;18952;52.516;13.460;2022-10-31T03:49:59;33.10;;;20.10;;
32501;SDS011;18952;52.516;13.460;2022-10-31T03:52:27;34.40;;;21.15;;
32501;SDS011;18952;52.516;13.460;2022-10-31T03:55:09;35.90;;;20.52;;
32501;SDS011;18952;52.516;13.460;2022-10-31T03:57:57;32.63;;;19.60;;
32501;SDS011;18952;52.516;13.460;2022-10-31T04:00:31;32.35;;;19.48;;
32501;SDS011;18952;52.516;13.460;2022-10-31T04:03:00;29.50;;;18.75;;
32501;SDS011;18952;52.516;13.460;2022-10-31T04:05:35;32.92;;;19.65;;
32501;SDS011;18952;52.516;13.460;2022-10-31T04:08:05;31.85;;;19.20;;
32501;SDS011;18952;52.516;13.460;2022-10-31T04:10:36;37.40;;;18.88;;
32501;SDS011;18952;52.516;13.460;2022-10-31T04:13:06;32.28;;;18.38;;
32501;SDS011;18952;52.516;13.460;2022-10-31T04:15:36;29.67;;;18.65;;
32501;SDS011;18952;52.516;13.460;2022-10-31T04:18:05;30.92;;;17.58;;
32501;SDS011;18952;52.516;13.460;2022-10-31T04:20:34;30.73;;;18.27;;
32501;SDS011;18952;52.516;13.460;2022-10-31T04:23:03;33.35;;;17.38;;
32501;SDS011;18952;52.516;13.460;2022-10-31T04:25:30;32.17;;;17.63;;
32501;SDS011;18952;52.516;13.460;2022-10-31T04:27:57;34.38;;;18.00;;
32501;SDS011;18952;52.516;13.460;2022-10-31T04:30:24;36.03;;;18.30;;
32501;SDS011;18952;52.516;13.460;2022-10-31T04:32:51;35.17;;;18.52;;
32501;SDS011;18952;52.516;13.460;2022-10-31T04:35:18;33.25;;;17.83;;
32501;SDS011;18952;52.516;13.460;2022-10-31T04:37:44;31.83;;;17.88;;
32501;SDS011;18952;52.516;13.460;2022-10-31T04:40:11;32.38;;;17.65;;
32501;SDS011;18952;52.516;13.460;2022-10-31T04:42:38;27.52;;;17.65;;
32501;SDS011;18952;52.516;13.460;2022-10-31T04:45:05;30.85;;;18.23;;
32501;SDS011;18952;52.516;13.460;2022-10-31T04:47:32;29.58;;;17.17;;
32501;SDS011;18952;52.516;13.460;2022-10-31T04:50:00;35.50;;;18.75;;
32501;SDS011;18952;52.516;13.460;2022-10-31T04:52:27;31.65;;;18.10;;
32501;SDS011;18952;52.516;13.460;2022-10-31T04:54:54;31.52;;;17.77;;
32501;SDS011;18952;52.516;13.460;2022-10-31T04:57:21;34.63;;;19.15;;
32501;SDS011;18952;52.516;13.460;2022-10-31T04:59:47;33.30;;;18.35;;
32501;SDS011;18952;52.516;13.460;2022-10-31T05:02:15;30.25;;;18.20;;
32501;SDS011;18952;52.516;13.460;2022-10-31T05:04:42;30.77;;;18.80;;
32501;SDS011;18952;52.516;13.460;2022-10-31T05:07:09;30.23;;;18.95;;
32501;SDS011;18952;52.516;13.460;2022-10-31T05:09:36;29.85;;;19.02;;
32501;SDS011;18952;52.516;13.460;2022-10-31T05:12:03;30.40;;;18.52;;
32501;SDS011;18952;52.516;13.460;2022-10-31T05:14:29;32.53;;;19.55;;
32501;SDS011;18952;52.516;13.460;2022-10-31T05:16:56;30.08;;;19.10;;
32501;SDS011;18952;52.516;13.460;2022-10-31T05:19:23;35.63;;;21.50;;
32501;SDS011;18952;52.516;13.460;2022-10-31T05:21:50;33.40;;;21.02;;
32501;SDS011;18952;52.516;13.460;2022-10-31T05:24:16;35.20;;;20.63;;
32501;SDS011;18952;52.516;13.460;2022-10-31T05:26:43;35.35;;;20.95;;
32501;SDS011;18952;52.516;13.460;2022-10-31T05:29:10;37.05;;;20.98;;
32501;SDS011;18952;52.516;13.460;2022-10-31T05:31:36;36.33;;;20.58;;
32501;SDS011;18952;52.516;13.460;2022-10-31T05:34:03;39.70;;;21.80;;
32501;SDS011;18952;52.516;13.460;2022-10-31T05:36:30;41.85;;;21.08;;
32501;SDS011;18952;52.516;13.460;2022-10-31T05:38:57;32.28;;;20.40;;
32501;SDS011;18952;52.516;13.460;2022-10-31T05:41:24;36.95;;;21.25;;
32501;SDS011;18952;52.516;13.460;2022-10-31T05:43:51;35.85;;;20.95;;
32501;SDS011;18952;52.516;13.460;2022-10-31T05:46:17;37.53;;;22.13;;
32501;SDS011;18952;52.516;13.460;2022-10-31T05:48:44;42.25;;;21.95;;
32501;SDS011;18952;52.516;13.460;2022-10-31T05:51:12;38.17;;;22.23;;
32501;SDS011;18952;52.516;13.460;2022-10-31T05:53:38;34.83;;;22.35;;
32501;SDS011;18952;52.516;13.460;2022-10-31T05:56:05;37.45;;;22.40;;
32501;SDS011;18952;52.516;13.460;2022-10-31T05:58:32;35.05;;;21.85;;
32501;SDS011;18952;52.516;13.460;2022-10-31T06:00:59;39.13;;;22.95;;
32501;SDS011;18952;52.516;13.460;2022-10-31T06:03:26;38.00;;;22.52;;
32501;SDS011;18952;52.516;13.460;2022-10-31T06:05:52;41.78;;;24.05;;
32501;SDS011;18952;52.516;13.460;2022-10-31T06:08:20;35.67;;;23.38;;
32501;SDS011;18952;52.516;13.460;2022-10-31T06:10:47;37.05;;;23.65;;
32501;SDS011;18952;52.516;13.460;2022-10-31T06:13:14;43.60;;;24.15;;
32501;SDS011;18952;52.516;13.460;2022-10-31T06:15:42;38.83;;;24.58;;
32501;SDS011;18952;52.516;13.460;2022-10-31T06:18:09;42.03;;;24.77;;
32501;SDS011;18952;52.516;13.460;2022-10-31T06:20:35;37.50;;;24.30;;
32501;SDS011;18952;52.516;13.460;2022-10-31T06:23:02;40.05;;;24.48;;
32501;SDS011;18952;52.516;13.460;2022-10-31T06:25:30;40.70;;;25.05;;
32501;SDS011;18952;52.516;13.460;2022-10-31T06:27:57;40.67;;;25.77;;
32501;SDS011;18952;52.516;13.460;2022-10-31T06:30:24;36.78;;;24.27;;
32501;SDS011;18952;52.516;13.460;2022-10-31T06:32:51;37.33;;;25.58;;
32501;SDS011;18952;52.516;13.460;2022-10-31T06:35:18;36.28;;;24.95;;
32501;SDS011;18952;52.516;13.460;2022-10-31T06:37:54;43.00;;;27.38;;
32501;SDS011;18952;52.516;13.460;2022-10-31T06:40:21;44.28;;;26.67;;
32501;SDS011;18952;52.516;13.460;2022-10-31T06:43:01;45.70;;;26.20;;
32501;SDS011;18952;52.516;13.460;2022-10-31T06:45:28;43.38;;;26.50;;
32501;SDS011;18952;52.516;13.460;2022-10-31T06:47:55;48.50;;;27.17;;
32501;SDS011;18952;52.516;13.460;2022-10-31T06:50:42;45.42;;;28.30;;
32501;SDS011;18952;52.516;13.460;2022-10-31T06:53:08;50.72;;;26.67;;
32501;SDS011;18952;52.516;13.460;2022-10-31T06:55:35;45.70;;;27.38;;
32501;SDS011;18952;52.516;13.460;2022-10-31T06:58:02;46.63;;;26.98;;
32501;SDS011;18952;52.516;13.460;2022-10-31T07:00:29;52.95;;;29.20;;
32501;SDS011;18952;52.516;13.460;2022-10-31T07:02:58;46.13;;;27.63;;
32501;SDS011;18952;52.516;13.460;2022-10-31T07:05:26;46.22;;;28.23;;
32501;SDS011;18952;52.516;13.460;2022-10-31T07:07:54;53.63;;;29.23;;
32501;SDS011;18952;52.516;13.460;2022-10-31T07:10:23;55.05;;;29.65;;
32501;SDS011;18952;52.516;13.460;2022-10-31T07:12:54;47.47;;;29.25;;
32501;SDS011;18952;52.516;13.460;2022-10-31T07:15:26;55.45;;;30.25;;
32501;SDS011;18952;52.516;13.460;2022-10-31T07:17:58;49.17;;;29.17;;
32501;SDS011;18952;52.516;13.460;2022-10-31T07:20:26;48.30;;;27.73;;
32501;SDS011;18952;52.516;13.460;2022-10-31T07:22:54;51.40;;;27.55;;
32501;SDS011;18952;52.516;13.460;2022-10-31T07:25:21;48.95;;;27.20;;
32501;SDS011;18952;52.516;13.460;2022-10-31T07:27:48;43.13;;;25.63;;
32501;SDS011;18952;52.516;13.460;2022-10-31T07:30:15;48.92;;;27.35;;
32501;SDS011;18952;52.516;13.460;2022-10-31T07:32:43;51.97;;;25.40;;
32501;SDS011;18952;52.516;13.460;2022-10-31T07:35:12;39.67;;;25.08;;
32501;SDS011;18952;52.516;13.460;2022-10-31T07:37:41;45.65;;;25.27;;
32501;SDS011;18952;52.516;13.460;2022-10-31T07:40:08;45.72;;;26.27;;
32501;SDS011;18952;52.516;13.460;2022-10-31T07:42:36;42.30;;;25.42;;
32501;SDS011;18952;52.516;13.460;2022-10-31T07:45:09;39.78;;;25.23;;
32501;SDS011;18952;52.516;13.460;2022-10-31T07:47:38;41.60;;;26.25;;
32501;SDS011;18952;52.516;13.460;2022-10-31T07:50:06;45.70;;;27.58;;
32501;SDS011;18952;52.516;13.460;2022-10-31T07:52:34;46.97;;;27.77;;
32501;SDS011;18952;52.516;13.460;2022-10-31T07:55:02;46.05;;;27.88;;
32501;SDS011;18952;52.516;13.460;2022-10-31T07:57:29;51.95;;;29.13;;
32501;SDS011;18952;52.516;13.460;2022-10-31T08:00:00;48.38;;;28.00;;
32501;SDS011;18952;52.516;13.460;2022-10-31T08:02:27;39.95;;;28.10;;
32501;SDS011;18952;52.516;13.460;2022-10-31T08:04:53;55.03;;;28.83;;
32501;SDS011;18952;52.516;13.460;2022-10-31T08:07:25;52.70;;;29.65;;
32501;SDS011;18952;52.516;13.460;2022-10-31T08:09:53;44.20;;;29.05;;
32501;SDS011;18952;52.516;13.460;2022-10-31T08:12:20;48.80;;;29.45;;
32501;SDS011;18952;52.516;13.460;2022-10-31T08:14:47;47.30;;;28.60;;
32501;SDS011;18952;52.516;13.460;2022-10-31T08:17:14;48.35;;;29.25;;
32501;SDS011;18952;52.516;13.460;2022-10-31T08:19:47;53.00;;;28.10;;
32501;SDS011;18952;52.516;13.460;2022-10-31T08:22:13;47.28;;;29.00;;
32501;SDS011;18952;52.516;13.460;2022-10-31T08:24:40;44.88;;;27.20;;
32501;SDS011;18952;52.516;13.460;2022-10-31T08:27:07;41.72;;;27.25;;
32501;SDS011;18952;52.516;13.460;2022-10-31T08:29:34;46.30;;;27.90;;
32501;SDS011;18952;52.516;13.460;2022-10-31T08:32:00;49.78;;;27.98;;
32501;SDS011;18952;52.516;13.460;2022-10-31T08:34:27;49.65;;;29.10;;
32501;SDS011;18952;52.516;13.460;2022-10-31T08:36:54;50.95;;;28.75;;
32501;SDS011;18952;52.516;13.460;2022-10-31T08:39:21;45.22;;;28.92;;
32501;SDS011;18952;52.516;13.460;2022-10-31T08:41:48;45.05;;;30.17;;
32501;SDS011;18952;52.516;13.460;2022-10-31T08:44:14;50.30;;;30.55;;
32501;SDS011;18952;52.516;13.460;2022-10-31T08:46:41;46.53;;;29.83;;
32501;SDS011;18952;52.516;13.460;2022-10-31T08:49:08;51.47;;;31.38;;
32501;SDS011;18952;52.516;13.460;2022-10-31T08:51:35;53.25;;;30.08;;
32501;SDS011;18952;52.516;13.460;2022-10-31T08:54:01;47.25;;;29.25;;
32501;SDS011;18952;52.516;13.460;2022-10-31T08:56:28;54.03;;;30.20;;
32501;SDS011;18952;52.516;13.460;2022-10-31T08:58:55;48.78;;;30.52;;
32501;SDS011;18952;52.516;13.460;2022-10-31T09:01:22;45.80;;;29.95;;
32501;SDS011;18952;52.516;13.460;2022-10-31T09:03:49;47.38;;;29.98;;
32501;SDS011;18952;52.516;13.460;2022-10-31T09:06:16;53.03;;;30.52;;
32501;SDS011;18952;52.516;13.460;2022-10-31T09:08:42;48.63;;;30.58;;
32501;SDS011;18952;52.516;13.460;2022-10-31T09:11:09;50.65;;;30.00;;
32501;SDS011;18952;52.516;13.460;2022-10-31T09:13:36;44.97;;;30.60;;
32501;SDS011;18952;52.516;13.460;2022-10-31T09:16:06;49.90;;;32.10;;
32501;SDS011;18952;52.516;13.460;2022-10-31T09:18:33;48.78;;;32.08;;
32501;SDS011;18952;52.516;13.460;2022-10-31T09:21:00;55.35;;;32.42;;
32501;SDS011;18952;52.516;13.460;2022-10-31T09:23:27;49.28;;;30.85;;
32501;SDS011;18952;52.516;13.460;2022-10-31T09:25:54;51.95;;;33.03;;
32501;SDS011;18952;52.516;13.460;2022-10-31T09:28:22;51.90;;;33.17;;
32501;SDS011;18952;52.516;13.460;2022-10-31T09:30:50;55.28;;;34.90;;
32501;SDS011;18952;52.516;13.460;2022-10-31T09:33:18;54.30;;;36.28;;
32501;SDS011;18952;52.516;13.460;2022-10-31T09:35:46;59.25;;;35.22;;
32501;SDS011;18952;52.516;13.460;2022-10-31T09:38:14;56.05;;;33.78;;
32501;SDS011;18952;52.516;13.460;2022-10-31T09:48:51;52.33;;;35.45;;
32501;SDS011;18952;52.516;13.460;2022-10-31T09:51:33;57.47;;;35.53;;
32501;SDS011;18952;52.516;13.460;2022-10-31T09:56:44;60.60;;;38.35;;
32501;SDS011;18952;52.516;13.460;2022-10-31T09:59:23;66.03;;;38.95;;
32501;SDS011;18952;52.516;13.460;2022-10-31T10:01:54;67.07;;;39.22;;
32501;SDS011;18952;52.516;13.460;2022-10-31T10:04:58;67.57;;;41.53;;
32501;SDS011;18952;52.516;13.460;2022-10-31T10:26:13;69.88;;;47.38;;
32501;SDS011;18952;52.516;13.460;2022-10-31T10:28:52;68.05;;;47.85;;
32501;SDS011;18952;52.516;13.460;2022-10-31T10:31:27;65.20;;;47.60;;
32501;SDS011;18952;52.516;13.460;2022-10-31T10:34:01;69.72;;;48.13;;
32501;SDS011;18952;52.516;13.460;2022-10-31T10:36:54;74.25;;;48.65;;
32501;SDS011;18952;52.516;13.460;2022-10-31T10:39:33;75.60;;;47.95;;
32501;SDS011;18952;52.516;13.460;2022-10-31T10:42:13;67.30;;;47.25;;
32501;SDS011;18952;52.516;13.460;2022-10-31T10:44:43;67.97;;;45.30;;
32501;SDS011;18952;52.516;13.460;2022-10-31T10:47:13;63.90;;;45.25;;
32501;SDS011;18952;52.516;13.460;2022-10-31T10:49:49;72.95;;;44.22;;
32501;SDS011;18952;52.516;13.460;2022-10-31T10:58:00;62.80;;;42.85;;
32501;SDS011;18952;52.516;13.460;2022-10-31T11:00:31;65.43;;;42.33;;
32501;SDS011;18952;52.516;13.460;2022-10-31T11:03:08;61.58;;;41.60;;
32501;SDS011;18952;52.516;13.460;2022-10-31T11:05:44;63.00;;;39.10;;
32501;SDS011;18952;52.516;13.460;2022-10-31T11:08:23;60.45;;;40.00;;
32501;SDS011;18952;52.516;13.460;2022-10-31T11:13:35;55.83;;;37.35;;
32501;SDS011;18952;52.516;13.460;2022-10-31T11:16:04;63.83;;;37.08;;
32501;SDS011;18952;52.516;13.460;2022-10-31T11:18:37;56.88;;;37.35;;
32501;SDS011;18952;52.516;13.460;2022-10-31T11:21:19;67.70;;;37.80;;
32501;SDS011;18952;52.516;13.460;2022-10-31T11:24:04;58.42;;;37.38;;
32501;SDS011;18952;52.516;13.460;2022-10-31T11:26:40;64.45;;;38.88;;
32501;SDS011;18952;52.516;13.460;2022-10-31T11:29:14;59.22;;;39.22;;
32501;SDS011;18952;52.516;13.460;2022-10-31T11:31:49;62.95;;;38.38;;
32501;SDS011;18952;52.516;13.460;2022-10-31T11:36:58;59.38;;;38.65;;
32501;SDS011;18952;52.516;13.460;2022-10-31T11:39:40;60.05;;;38.50;;
32501;SDS011;18952;52.516;13.460;2022-10-31T11:42:38;62.05;;;38.05;;
32501;SDS011;18952;52.516;13.460;2022-10-31T11:45:29;62.63;;;37.90;;
32501;SDS011;18952;52.516;13.460;2022-10-31T11:47:56;69.95;;;39.03;;
32501;SDS011;18952;52.516;13.460;2022-10-31T11:50:38;63.95;;;38.35;;
32501;SDS011;18952;52.516;13.460;2022-10-31T11:53:12;58.92;;;37.60;;
32501;SDS011;18952;52.516;13.460;2022-10-31T11:55:43;62.67;;;37.85;;
32501;SDS011;18952;52.516;13.460;2022-10-31T11:58:22;55.53;;;37.88;;
32501;SDS011;18952;52.516;13.460;2022-10-31T12:00:53;65.88;;;37.97;;
32501;SDS011;18952;52.516;13.460;2022-10-31T12:08:36;62.83;;;37.90;;
32501;SDS011;18952;52.516;13.460;2022-10-31T12:11:24;66.07;;;39.05;;
32501;SDS011;18952;52.516;13.460;2022-10-31T12:14:11;69.43;;;39.28;;
32501;SDS011;18952;52.516;13.460;2022-10-31T12:16:59;66.80;;;39.72;;
32501;SDS011;18952;52.516;13.460;2022-10-31T12:19:41;61.88;;;39.20;;
32501;SDS011;18952;52.516;13.460;2022-10-31T12:22:12;68.97;;;39.65;;
32501;SDS011;18952;52.516;13.460;2022-10-31T12:25:00;65.30;;;38.72;;
32501;SDS011;18952;52.516;13.460;2022-10-31T12:27:58;63.60;;;38.78;;
32501;SDS011;18952;52.516;13.460;2022-10-31T12:48:28;52.35;;;32.38;;
32501;SDS011;18952;52.516;13.460;2022-10-31T12:57:37;54.05;;;32.28;;
32501;SDS011;18952;52.516;13.460;2022-10-31T13:00:04;53.30;;;33.22;;
32501;SDS011;18952;52.516;13.460;2022-10-31T13:05:59;51.88;;;33.33;;
32501;SDS011;18952;52.516;13.460;2022-10-31T13:08:36;55.90;;;33.75;;
32501;SDS011;18952;52.516;13.460;2022-10-31T13:11:10;50.65;;;32.78;;
32501;SDS011;18952;52.516;13.460;2022-10-31T13:16:46;50.55;;;32.70;;
32501;SDS011;18952;52.516;13.460;2022-10-31T13:19:22;56.45;;;32.47;;
32501;SDS011;18952;52.516;13.460;2022-10-31T13:22:09;59.65;;;33.65;;
32501;SDS011;18952;52.516;13.460;2022-10-31T13:30:24;54.40;;;31.65;;
32501;SDS011;18952;52.516;13.460;2022-10-31T13:32:59;58.83;;;31.88;;
32501;SDS011;18952;52.516;13.460;2022-10-31T13:35:33;52.03;;;32.72;;
32501;SDS011;18952;52.516;13.460;2022-10-31T13:41:04;50.95;;;32.90;;
32501;SDS011;18952;52.516;13.460;2022-10-31T13:46:50;52.33;;;32.70;;
32501;SDS011;18952;52.516;13.460;2022-10-31T13:54:41;56.25;;;34.83;;
32501;SDS011;18952;52.516;13.460;2022-10-31T13:57:18;52.28;;;33.65;;
32501;SDS011;18952;52.516;13.460;2022-10-31T13:59:52;57.38;;;33.78;;
32501;SDS011;18952;52.516;13.460;2022-10-31T14:02:29;50.25;;;32.15;;
32501;SDS011;18952;52.516;13.460;2022-10-31T14:04:58;53.25;;;33.53;;
32501;SDS011;18952;52.516;13.460;2022-10-31T14:07:27;49.45;;;33.55;;
32501;SDS011;18952;52.516;13.460;2022-10-31T14:10:05;63.42;;;35.30;;
32501;SDS011;18952;52.516;13.460;2022-10-31T14:12:46;53.53;;;33.13;;
32501;SDS011;18952;52.516;13.460;2022-10-31T14:15:18;55.15;;;35.60;;
32501;SDS011;18952;52.516;13.460;2022-10-31T14:17:49;52.67;;;34.67;;
32501;SDS011;18952;52.516;13.460;2022-10-31T14:25:53;55.90;;;34.55;;
32501;SDS011;18952;52.516;13.460;2022-10-31T14:28:21;50.33;;;34.38;;
32501;SDS011;18952;52.516;13.460;2022-10-31T14:31:00;61.13;;;35.67;;
32501;SDS011;18952;52.516;13.460;2022-10-31T14:33:27;55.47;;;36.08;;
32501;SDS011;18952;52.516;13.460;2022-10-31T14:38:54;58.50;;;36.67;;
32501;SDS011;18952;52.516;13.460;2022-10-31T14:41:47;56.42;;;35.72;;
32501;SDS011;18952;52.516;13.460;2022-10-31T14:53:11;59.28;;;40.60;;
32501;SDS011;18952;52.516;13.460;2022-10-31T14:55:49;64.18;;;42.28;;
32501;SDS011;18952;52.516;13.460;2022-10-31T14:58:23;61.65;;;43.53;;
32501;SDS011;18952;52.516;13.460;2022-10-31T15:00:55;61.47;;;44.50;;
32501;SDS011;18952;52.516;13.460;2022-10-31T15:05:54;67.50;;;46.08;;
32501;SDS011;18952;52.516;13.460;2022-10-31T15:09:05;73.13;;;47.53;;
32501;SDS011;18952;52.516;13.460;2022-10-31T15:13:53;73.97;;;49.40;;
32501;SDS011;18952;52.516;13.460;2022-10-31T15:16:26;66.20;;;49.85;;
32501;SDS011;18952;52.516;13.460;2022-10-31T15:19:10;75.47;;;50.78;;
32501;SDS011;18952;52.516;13.460;2022-10-31T15:21:41;73.45;;;51.30;;
32501;SDS011;18952;52.516;13.460;2022-10-31T15:24:10;83.70;;;57.92;;
32501;SDS011;18952;52.516;13.460;2022-10-31T15:26:39;76.68;;;52.08;;
32501;SDS011;18952;52.516;13.460;2022-10-31T15:29:14;72.45;;;52.25;;
32501;SDS011;18952;52.516;13.460;2022-10-31T15:31:55;79.50;;;53.85;;
32501;SDS011;18952;52.516;13.460;2022-10-31T15:37:14;76.28;;;54.38;;
32501;SDS011;18952;52.516;13.460;2022-10-31T15:39:46;74.88;;;54.55;;
32501;SDS011;18952;52.516;13.460;2022-10-31T15:44:54;78.53;;;54.60;;
32501;SDS011;18952;52.516;13.460;2022-10-31T15:47:31;76.65;;;54.78;;
32501;SDS011;18952;52.516;13.460;2022-10-31T15:50:00;78.82;;;53.60;;
32501;SDS011;18952;52.516;13.460;2022-10-31T15:52:37;79.68;;;55.40;;
32501;SDS011;18952;52.516;13.460;2022-10-31T15:57:41;81.95;;;56.67;;
32501;SDS011;18952;52.516;13.460;2022-10-31T16:00:27;87.82;;;57.92;;
32501;SDS011;18952;52.516;13.460;2022-10-31T16:03:06;82.05;;;57.38;;
32501;SDS011;18952;52.516;13.460;2022-10-31T16:05:45;85.53;;;58.95;;
32501;SDS011;18952;52.516;13.460;2022-10-31T16:08:35;83.80;;;58.40;;
32501;SDS011;18952;52.516;13.460;2022-10-31T16:13:33;83.05;;;59.58;;
32501;SDS011;18952;52.516;13.460;2022-10-31T16:16:12;80.10;;;55.90;;
32501;SDS011;18952;52.516;13.460;2022-10-31T16:19:02;93.63;;;63.72;;
32501;SDS011;18952;52.516;13.460;2022-10-31T16:21:32;90.60;;;60.97;;
32501;SDS011;18952;52.516;13.460;2022-10-31T16:24:02;88.13;;;60.28;;
32501;SDS011;18952;52.516;13.460;2022-10-31T16:26:38;85.40;;;61.10;;
32501;SDS011;18952;52.516;13.460;2022-10-31T16:29:22;91.55;;;64.63;;
32501;SDS011;18952;52.516;13.460;2022-10-31T16:31:52;97.85;;;64.57;;
32501;SDS011;18952;52.516;13.460;2022-10-31T16:34:20;93.07;;;63.47;;
32501;SDS011;18952;52.516;13.460;2022-10-31T16:36:52;95.88;;;65.93;;
32501;SDS011;18952;52.516;13.460;2022-10-31T16:39:19;92.55;;;65.28;;
32501;SDS011;18952;52.516;13.460;2022-10-31T16:41:47;91.85;;;65.55;;
32501;SDS011;18952;52.516;13.460;2022-10-31T16:44:26;95.22;;;66.22;;
32501;SDS011;18952;52.516;13.460;2022-10-31T16:49:32;101.30;;;66.43;;
32501;SDS011;18952;52.516;13.460;2022-10-31T16:51:59;99.40;;;68.07;;
32501;SDS011;18952;52.516;13.460;2022-10-31T16:54:25;105.25;;;68.25;;
32501;SDS011;18952;52.516;13.460;2022-10-31T16:56:54;99.55;;;70.00;;
32501;SDS011;18952;52.516;13.460;2022-10-31T16:59:21;100.38;;;70.68;;
32501;SDS011;18952;52.516;13.460;2022-10-31T17:01:48;111.25;;;72.25;;
32501;SDS011;18952;52.516;13.460;2022-10-31T17:04:15;104.85;;;71.20;;
32501;SDS011;18952;52.516;13.460;2022-10-31T17:06:42;114.82;;;80.47;;